sensor_id;sensor_type;location;lat;lon;timestamp;P1;durP1;ratioP1;P2;durP2;ratioP2
8247;SDS011;4164;49.844;8.830;2022-07-21T00:00:36;18.90;;;15.00;;
8247;SDS011;4164;49.844;8.830;2022-07-21T00:03:02;19.67;;;15.87;;
8247;SDS011;4164;49.844;8.830;2022-07-21T00:05:28;18.97;;;15.20;;
8247;SDS011;4164;49.844;8.830;2022-07-21T00:07:55;20.43;;;15.87;;
8247;SDS011;4164;49.844;8.830;2022-07-21T00:10:21;17.73;;;15.40;;
8247;SDS011;4164;49.844;8.830;2022-07-21T00:12:48;17.90;;;15.73;;
8247;SDS011;4164;49.844;8.830;2022-07-21T00:15:14;18.20;;;16.30;;
8247;SDS011;4164;49.844;8.830;2022-07-21T00:17:41;19.67;;;16.30;;
8247;SDS011;4164;49.844;8.830;2022-07-21T00:20:07;17.80;;;15.87;;
8247;SDS011;4164;49.844;8.830;2022-07-21T00:22:33;18.23;;;16.33;;
8247;SDS011;4164;49.844;8.830;2022-07-21T00:24:59;18.93;;;16.10;;
8247;SDS011;4164;49.844;8.830;2022-07-21T00:27:25;16.67;;;15.03;;
8247;SDS011;4164;49.844;8.830;2022-07-21T00:29:51;16.63;;;14.53;;
8247;SDS011;4164;49.844;8.830;2022-07-21T00:32:16;16.17;;;14.57;;
8247;SDS011;4164;49.844;8.830;2022-07-21T00:34:42;17.87;;;14.00;;
8247;SDS011;4164;49.844;8.830;2022-07-21T00:37:09;17.93;;;13.47;;
8247;SDS011;4164;49.844;8.830;2022-07-21T00:39:35;18.27;;;14.13;;
8247;SDS011;4164;49.844;8.830;2022-07-21T00:42:01;14.13;;;12.67;;
8247;SDS011;4164;49.844;8.830;2022-07-21T00:44:27;20.00;;;13.47;;
8247;SDS011;4164;49.844;8.830;2022-07-21T00:46:53;16.73;;;12.70;;
8247;SDS011;4164;49.844;8.830;2022-07-21T00:49:19;14.90;;;12.57;;
8247;SDS011;4164;49.844;8.830;2022-07-21T00:51:46;17.00;;;13.37;;
8247;SDS011;4164;49.844;8.830;2022-07-21T00:54:14;14.50;;;13.00;;
8247;SDS011;4164;49.844;8.830;2022-07-21T00:56:41;15.03;;;13.10;;
8247;SDS011;4164;49.844;8.830;2022-07-21T00:59:07;14.23;;;12.80;;
8247;SDS011;4164;49.844;8.830;2022-07-21T01:01:33;14.30;;;12.90;;
8247;SDS011;4164;49.844;8.830;2022-07-21T01:03:58;16.90;;;13.50;;
8247;SDS011;4164;49.844;8.830;2022-07-21T01:06:24;15.33;;;13.40;;
8247;SDS011;4164;49.844;8.830;2022-07-21T01:08:53;14.17;;;12.70;;
8247;SDS011;4164;49.844;8.830;2022-07-21T01:11:19;13.93;;;12.10;;
8247;SDS011;4164;49.844;8.830;2022-07-21T01:13:46;12.33;;;11.10;;
8247;SDS011;4164;49.844;8.830;2022-07-21T01:16:12;12.73;;;11.33;;
8247;SDS011;4164;49.844;8.830;2022-07-21T01:18:38;13.33;;;11.90;;
8247;SDS011;4164;49.844;8.830;2022-07-21T01:23:42;11.37;;;10.17;;
8247;SDS011;4164;49.844;8.830;2022-07-21T01:26:07;15.40;;;10.90;;
8247;SDS011;4164;49.844;8.830;2022-07-21T01:28:33;12.30;;;10.53;;
8247;SDS011;4164;49.844;8.830;2022-07-21T01:30:58;15.10;;;11.53;;
8247;SDS011;4164;49.844;8.830;2022-07-21T01:33:24;11.30;;;10.13;;
8247;SDS011;4164;49.844;8.830;2022-07-21T01:35:49;12.47;;;11.10;;
8247;SDS011;4164;49.844;8.830;2022-07-21T01:38:15;12.10;;;10.80;;
8247;SDS011;4164;49.844;8.830;2022-07-21T01:40:59;16.57;;;11.70;;
8247;SDS011;4164;49.844;8.830;2022-07-21T01:43:43;17.17;;;12.77;;
8247;SDS011;4164;49.844;8.830;2022-07-21T01:46:12;18.10;;;16.30;;
8247;SDS011;4164;49.844;8.830;2022-07-21T01:48:41;22.07;;;18.23;;
8247;SDS011;4164;49.844;8.830;2022-07-21T01:51:10;19.10;;;17.03;;
8247;SDS011;4164;49.844;8.830;2022-07-21T01:53:36;20.53;;;17.43;;
8247;SDS011;4164;49.844;8.830;2022-07-21T01:56:02;19.90;;;16.43;;
8247;SDS011;4164;49.844;8.830;2022-07-21T01:58:29;21.83;;;17.47;;
8247;SDS011;4164;49.844;8.830;2022-07-21T02:00:55;20.47;;;17.50;;
8247;SDS011;4164;49.844;8.830;2022-07-21T02:03:21;19.50;;;17.37;;
8247;SDS011;4164;49.844;8.830;2022-07-21T02:05:46;25.03;;;16.87;;
8247;SDS011;4164;49.844;8.830;2022-07-21T02:08:12;21.70;;;17.20;;
8247;SDS011;4164;49.844;8.830;2022-07-21T02:10:37;21.83;;;18.00;;
8247;SDS011;4164;49.844;8.830;2022-07-21T02:13:03;21.67;;;17.00;;
8247;SDS011;4164;49.844;8.830;2022-07-21T02:15:29;19.80;;;17.63;;
8247;SDS011;4164;49.844;8.830;2022-07-21T02:17:55;20.47;;;18.43;;
8247;SDS011;4164;49.844;8.830;2022-07-21T02:20:21;20.97;;;17.83;;
8247;SDS011;4164;49.844;8.830;2022-07-21T02:22:47;23.23;;;17.70;;
8247;SDS011;4164;49.844;8.830;2022-07-21T02:25:14;24.00;;;18.13;;
8247;SDS011;4164;49.844;8.830;2022-07-21T02:27:41;25.20;;;19.57;;
8247;SDS011;4164;49.844;8.830;2022-07-21T02:30:08;22.93;;;20.20;;
8247;SDS011;4164;49.844;8.830;2022-07-21T02:32:35;24.03;;;20.23;;
8247;SDS011;4164;49.844;8.830;2022-07-21T02:35:00;23.23;;;20.73;;
8247;SDS011;4164;49.844;8.830;2022-07-21T02:37:27;25.30;;;22.60;;
8247;SDS011;4164;49.844;8.830;2022-07-21T02:39:53;24.13;;;20.97;;
8247;SDS011;4164;49.844;8.830;2022-07-21T02:42:19;26.30;;;21.77;;
8247;SDS011;4164;49.844;8.830;2022-07-21T02:44:44;25.87;;;22.10;;
8247;SDS011;4164;49.844;8.830;2022-07-21T02:47:10;24.70;;;19.47;;
8247;SDS011;4164;49.844;8.830;2022-07-21T02:49:36;22.80;;;18.87;;
8247;SDS011;4164;49.844;8.830;2022-07-21T02:52:02;19.47;;;17.37;;
8247;SDS011;4164;49.844;8.830;2022-07-21T02:54:28;20.43;;;17.73;;
8247;SDS011;4164;49.844;8.830;2022-07-21T02:56:53;19.53;;;17.00;;
8247;SDS011;4164;49.844;8.830;2022-07-21T02:59:19;19.60;;;16.47;;
8247;SDS011;4164;49.844;8.830;2022-07-21T03:01:44;18.20;;;16.23;;
8247;SDS011;4164;49.844;8.830;2022-07-21T03:04:10;20.50;;;16.37;;
8247;SDS011;4164;49.844;8.830;2022-07-21T03:06:36;19.47;;;16.77;;
8247;SDS011;4164;49.844;8.830;2022-07-21T03:09:02;18.97;;;16.10;;
8247;SDS011;4164;49.844;8.830;2022-07-21T03:11:28;18.77;;;16.67;;
8247;SDS011;4164;49.844;8.830;2022-07-21T03:13:54;18.63;;;15.57;;
8247;SDS011;4164;49.844;8.830;2022-07-21T03:16:19;19.03;;;15.10;;
8247;SDS011;4164;49.844;8.830;2022-07-21T03:18:45;19.20;;;14.90;;
8247;SDS011;4164;49.844;8.830;2022-07-21T03:21:10;20.67;;;13.53;;
8247;SDS011;4164;49.844;8.830;2022-07-21T03:23:36;15.07;;;13.53;;
8247;SDS011;4164;49.844;8.830;2022-07-21T03:26:01;16.10;;;14.10;;
8247;SDS011;4164;49.844;8.830;2022-07-21T03:28:27;15.37;;;13.77;;
8247;SDS011;4164;49.844;8.830;2022-07-21T03:30:53;18.57;;;13.57;;
8247;SDS011;4164;49.844;8.830;2022-07-21T03:33:18;14.97;;;12.70;;
8247;SDS011;4164;49.844;8.830;2022-07-21T03:35:44;14.83;;;13.20;;
8247;SDS011;4164;49.844;8.830;2022-07-21T03:38:09;14.40;;;12.57;;
8247;SDS011;4164;49.844;8.830;2022-07-21T03:40:35;17.83;;;13.53;;
8247;SDS011;4164;49.844;8.830;2022-07-21T03:43:03;17.47;;;13.50;;
8247;SDS011;4164;49.844;8.830;2022-07-21T03:45:30;16.73;;;12.30;;
8247;SDS011;4164;49.844;8.830;2022-07-21T03:47:56;14.53;;;12.63;;
8247;SDS011;4164;49.844;8.830;2022-07-21T03:50:23;16.30;;;12.87;;
8247;SDS011;4164;49.844;8.830;2022-07-21T03:52:49;14.50;;;11.70;;
8247;SDS011;4164;49.844;8.830;2022-07-21T03:55:15;12.83;;;11.43;;
8247;SDS011;4164;49.844;8.830;2022-07-21T03:58:05;14.67;;;12.23;;
8247;SDS011;4164;49.844;8.830;2022-07-21T04:00:31;13.67;;;11.83;;
8247;SDS011;4164;49.844;8.830;2022-07-21T04:03:02;11.93;;;10.73;;
8247;SDS011;4164;49.844;8.830;2022-07-21T04:05:29;13.00;;;11.70;;
8247;SDS011;4164;49.844;8.830;2022-07-21T04:07:55;13.73;;;11.33;;
8247;SDS011;4164;49.844;8.830;2022-07-21T04:10:22;11.70;;;10.50;;
8247;SDS011;4164;49.844;8.830;2022-07-21T04:12:49;15.40;;;10.97;;
8247;SDS011;4164;49.844;8.830;2022-07-21T04:15:15;15.57;;;11.57;;
8247;SDS011;4164;49.844;8.830;2022-07-21T04:17:41;15.77;;;10.97;;
8247;SDS011;4164;49.844;8.830;2022-07-21T04:20:08;15.53;;;11.50;;
8247;SDS011;4164;49.844;8.830;2022-07-21T04:22:35;13.33;;;11.07;;
8247;SDS011;4164;49.844;8.830;2022-07-21T04:25:01;11.40;;;10.20;;
8247;SDS011;4164;49.844;8.830;2022-07-21T04:27:29;12.17;;;10.20;;
8247;SDS011;4164;49.844;8.830;2022-07-21T04:29:55;13.23;;;11.10;;
8247;SDS011;4164;49.844;8.830;2022-07-21T04:32:20;11.90;;;10.07;;
8247;SDS011;4164;49.844;8.830;2022-07-21T04:34:46;11.67;;;10.27;;
8247;SDS011;4164;49.844;8.830;2022-07-21T04:37:11;11.77;;;9.87;;
8247;SDS011;4164;49.844;8.830;2022-07-21T04:39:37;10.63;;;9.07;;
8247;SDS011;4164;49.844;8.830;2022-07-21T04:42:02;13.17;;;8.80;;
8247;SDS011;4164;49.844;8.830;2022-07-21T04:44:28;10.30;;;8.97;;
8247;SDS011;4164;49.844;8.830;2022-07-21T04:46:54;9.80;;;8.23;;
8247;SDS011;4164;49.844;8.830;2022-07-21T04:49:19;10.50;;;7.70;;
8247;SDS011;4164;49.844;8.830;2022-07-21T04:51:45;8.53;;;7.73;;
8247;SDS011;4164;49.844;8.830;2022-07-21T04:54:10;10.57;;;7.60;;
8247;SDS011;4164;49.844;8.830;2022-07-21T04:56:39;9.97;;;7.67;;
8247;SDS011;4164;49.844;8.830;2022-07-21T04:59:08;8.07;;;7.37;;
8247;SDS011;4164;49.844;8.830;2022-07-21T05:01:33;9.97;;;8.10;;
8247;SDS011;4164;49.844;8.830;2022-07-21T05:03:59;11.93;;;7.93;;
8247;SDS011;4164;49.844;8.830;2022-07-21T05:06:25;10.83;;;7.90;;
8247;SDS011;4164;49.844;8.830;2022-07-21T05:08:50;8.43;;;7.60;;
8247;SDS011;4164;49.844;8.830;2022-07-21T05:11:16;9.13;;;7.87;;
8247;SDS011;4164;49.844;8.830;2022-07-21T05:13:42;8.67;;;7.77;;
8247;SDS011;4164;49.844;8.830;2022-07-21T05:16:07;9.70;;;8.67;;
8247;SDS011;4164;49.844;8.830;2022-07-21T05:18:33;9.83;;;7.87;;
8247;SDS011;4164;49.844;8.830;2022-07-21T05:20:58;8.87;;;7.77;;
8247;SDS011;4164;49.844;8.830;2022-07-21T05:23:24;9.67;;;7.60;;
8247;SDS011;4164;49.844;8.830;2022-07-21T05:25:49;9.90;;;7.43;;
8247;SDS011;4164;49.844;8.830;2022-07-21T05:28:15;9.37;;;7.77;;
8247;SDS011;4164;49.844;8.830;2022-07-21T05:30:41;8.63;;;7.73;;
8247;SDS011;4164;49.844;8.830;2022-07-21T05:33:06;8.73;;;7.47;;
8247;SDS011;4164;49.844;8.830;2022-07-21T05:35:32;8.17;;;7.37;;
8247;SDS011;4164;49.844;8.830;2022-07-21T05:37:57;9.30;;;8.30;;
8247;SDS011;4164;49.844;8.830;2022-07-21T05:40:23;8.13;;;6.60;;
8247;SDS011;4164;49.844;8.830;2022-07-21T05:42:48;8.00;;;7.20;;
8247;SDS011;4164;49.844;8.830;2022-07-21T05:45:14;8.17;;;6.23;;
8247;SDS011;4164;49.844;8.830;2022-07-21T05:47:40;8.33;;;6.37;;
8247;SDS011;4164;49.844;8.830;2022-07-21T05:50:06;7.87;;;6.37;;
8247;SDS011;4164;49.844;8.830;2022-07-21T05:52:33;8.63;;;6.43;;
8247;SDS011;4164;49.844;8.830;2022-07-21T05:54:58;6.20;;;5.60;;
8247;SDS011;4164;49.844;8.830;2022-07-21T05:57:24;6.80;;;5.90;;
8247;SDS011;4164;49.844;8.830;2022-07-21T05:59:49;9.03;;;5.60;;
8247;SDS011;4164;49.844;8.830;2022-07-21T06:02:15;8.47;;;6.13;;
8247;SDS011;4164;49.844;8.830;2022-07-21T06:04:40;6.60;;;5.57;;
8247;SDS011;4164;49.844;8.830;2022-07-21T06:07:06;7.70;;;6.00;;
8247;SDS011;4164;49.844;8.830;2022-07-21T06:09:32;7.87;;;6.07;;
8247;SDS011;4164;49.844;8.830;2022-07-21T06:11:57;9.30;;;6.30;;
8247;SDS011;4164;49.844;8.830;2022-07-21T06:14:23;7.57;;;6.50;;
8247;SDS011;4164;49.844;8.830;2022-07-21T06:16:48;6.83;;;6.07;;
8247;SDS011;4164;49.844;8.830;2022-07-21T06:19:14;8.30;;;7.43;;
8247;SDS011;4164;49.844;8.830;2022-07-21T06:21:40;9.57;;;7.30;;
8247;SDS011;4164;49.844;8.830;2022-07-21T06:24:06;8.10;;;7.27;;
8247;SDS011;4164;49.844;8.830;2022-07-21T06:26:32;8.87;;;7.97;;
8247;SDS011;4164;49.844;8.830;2022-07-21T06:28:58;9.13;;;7.70;;
8247;SDS011;4164;49.844;8.830;2022-07-21T06:31:24;9.23;;;7.77;;
8247;SDS011;4164;49.844;8.830;2022-07-21T06:33:49;8.67;;;6.97;;
8247;SDS011;4164;49.844;8.830;2022-07-21T06:36:15;8.40;;;7.47;;
8247;SDS011;4164;49.844;8.830;2022-07-21T06:38:40;9.43;;;7.20;;
8247;SDS011;4164;49.844;8.830;2022-07-21T06:41:06;8.10;;;7.03;;
8247;SDS011;4164;49.844;8.830;2022-07-21T06:43:32;9.27;;;7.20;;
8247;SDS011;4164;49.844;8.830;2022-07-21T06:45:58;9.43;;;6.10;;
8247;SDS011;4164;49.844;8.830;2022-07-21T06:48:24;8.50;;;6.47;;
8247;SDS011;4164;49.844;8.830;2022-07-21T06:50:50;9.00;;;6.67;;
8247;SDS011;4164;49.844;8.830;2022-07-21T06:53:18;7.50;;;6.67;;
8247;SDS011;4164;49.844;8.830;2022-07-21T06:55:44;6.93;;;6.07;;
8247;SDS011;4164;49.844;8.830;2022-07-21T06:58:11;8.47;;;6.90;;
8247;SDS011;4164;49.844;8.830;2022-07-21T07:00:38;8.63;;;6.53;;
8247;SDS011;4164;49.844;8.830;2022-07-21T07:03:04;9.83;;;7.40;;
8247;SDS011;4164;49.844;8.830;2022-07-21T07:05:30;7.07;;;5.93;;
8247;SDS011;4164;49.844;8.830;2022-07-21T07:07:56;6.60;;;6.00;;
8247;SDS011;4164;49.844;8.830;2022-07-21T07:10:22;11.50;;;6.33;;
8247;SDS011;4164;49.844;8.830;2022-07-21T07:12:47;6.77;;;6.17;;
8247;SDS011;4164;49.844;8.830;2022-07-21T07:15:13;6.47;;;5.87;;
8247;SDS011;4164;49.844;8.830;2022-07-21T07:17:38;8.67;;;6.20;;
8247;SDS011;4164;49.844;8.830;2022-07-21T07:20:04;7.07;;;6.37;;
8247;SDS011;4164;49.844;8.830;2022-07-21T07:22:31;8.13;;;6.50;;
8247;SDS011;4164;49.844;8.830;2022-07-21T07:24:57;8.60;;;6.70;;
8247;SDS011;4164;49.844;8.830;2022-07-21T07:27:23;7.33;;;5.60;;
8247;SDS011;4164;49.844;8.830;2022-07-21T07:29:48;5.53;;;4.97;;
8247;SDS011;4164;49.844;8.830;2022-07-21T07:32:14;7.77;;;5.27;;
8247;SDS011;4164;49.844;8.830;2022-07-21T07:34:39;6.47;;;5.40;;
8247;SDS011;4164;49.844;8.830;2022-07-21T07:37:05;7.33;;;5.80;;
8247;SDS011;4164;49.844;8.830;2022-07-21T07:39:31;6.70;;;5.73;;
8247;SDS011;4164;49.844;8.830;2022-07-21T07:41:56;6.80;;;5.47;;
8247;SDS011;4164;49.844;8.830;2022-07-21T07:44:22;6.90;;;6.20;;
8247;SDS011;4164;49.844;8.830;2022-07-21T07:46:48;7.57;;;5.80;;
8247;SDS011;4164;49.844;8.830;2022-07-21T07:49:14;6.20;;;5.27;;
8247;SDS011;4164;49.844;8.830;2022-07-21T07:51:39;6.63;;;4.90;;
8247;SDS011;4164;49.844;8.830;2022-07-21T07:54:05;6.53;;;5.30;;
8247;SDS011;4164;49.844;8.830;2022-07-21T07:56:31;6.67;;;5.20;;
8247;SDS011;4164;49.844;8.830;2022-07-21T07:58:56;8.27;;;5.40;;
8247;SDS011;4164;49.844;8.830;2022-07-21T08:01:22;14.53;;;5.80;;
8247;SDS011;4164;49.844;8.830;2022-07-21T08:03:48;6.30;;;5.27;;
8247;SDS011;4164;49.844;8.830;2022-07-21T08:06:13;7.20;;;5.93;;
8247;SDS011;4164;49.844;8.830;2022-07-21T08:08:39;7.17;;;5.73;;
8247;SDS011;4164;49.844;8.830;2022-07-21T08:11:04;9.53;;;5.33;;
8247;SDS011;4164;49.844;8.830;2022-07-21T08:13:30;7.03;;;5.83;;
8247;SDS011;4164;49.844;8.830;2022-07-21T08:15:56;6.90;;;6.20;;
8247;SDS011;4164;49.844;8.830;2022-07-21T08:18:21;7.53;;;6.07;;
8247;SDS011;4164;49.844;8.830;2022-07-21T08:20:47;6.07;;;5.47;;
8247;SDS011;4164;49.844;8.830;2022-07-21T08:23:13;6.70;;;5.97;;
8247;SDS011;4164;49.844;8.830;2022-07-21T08:25:39;7.77;;;5.57;;
8247;SDS011;4164;49.844;8.830;2022-07-21T08:28:07;6.47;;;5.87;;
8247;SDS011;4164;49.844;8.830;2022-07-21T08:30:34;5.43;;;4.93;;
8247;SDS011;4164;49.844;8.830;2022-07-21T08:33:00;7.67;;;5.50;;
8247;SDS011;4164;49.844;8.830;2022-07-21T08:35:26;6.77;;;5.63;;
8247;SDS011;4164;49.844;8.830;2022-07-21T08:37:54;6.17;;;5.27;;
8247;SDS011;4164;49.844;8.830;2022-07-21T08:40:25;6.50;;;5.03;;
8247;SDS011;4164;49.844;8.830;2022-07-21T08:42:52;6.40;;;5.30;;
8247;SDS011;4164;49.844;8.830;2022-07-21T08:45:19;9.20;;;4.83;;
8247;SDS011;4164;49.844;8.830;2022-07-21T08:47:45;5.73;;;5.00;;
8247;SDS011;4164;49.844;8.830;2022-07-21T08:50:11;8.57;;;4.80;;
8247;SDS011;4164;49.844;8.830;2022-07-21T08:52:36;5.20;;;4.70;;
8247;SDS011;4164;49.844;8.830;2022-07-21T08:55:02;5.23;;;4.73;;
8247;SDS011;4164;49.844;8.830;2022-07-21T08:57:28;6.30;;;5.17;;
8247;SDS011;4164;49.844;8.830;2022-07-21T08:59:54;6.43;;;5.00;;
8247;SDS011;4164;49.844;8.830;2022-07-21T09:02:26;5.83;;;4.60;;
8247;SDS011;4164;49.844;8.830;2022-07-21T09:04:54;5.27;;;4.53;;
8247;SDS011;4164;49.844;8.830;2022-07-21T09:07:20;5.47;;;4.90;;
8247;SDS011;4164;49.844;8.830;2022-07-21T09:09:54;8.90;;;4.70;;
8247;SDS011;4164;49.844;8.830;2022-07-21T09:12:26;6.60;;;4.53;;
8247;SDS011;4164;49.844;8.830;2022-07-21T09:14:52;5.27;;;4.77;;
8247;SDS011;4164;49.844;8.830;2022-07-21T09:17:37;5.40;;;4.90;;
8247;SDS011;4164;49.844;8.830;2022-07-21T09:20:03;6.67;;;5.20;;
8247;SDS011;4164;49.844;8.830;2022-07-21T09:22:29;4.83;;;4.20;;
8247;SDS011;4164;49.844;8.830;2022-07-21T09:24:55;8.23;;;5.27;;
8247;SDS011;4164;49.844;8.830;2022-07-21T09:27:21;5.83;;;4.97;;
8247;SDS011;4164;49.844;8.830;2022-07-21T09:29:51;5.33;;;4.83;;
8247;SDS011;4164;49.844;8.830;2022-07-21T09:32:23;6.07;;;5.47;;
8247;SDS011;4164;49.844;8.830;2022-07-21T09:34:52;6.57;;;5.47;;
8247;SDS011;4164;49.844;8.830;2022-07-21T09:37:19;10.73;;;5.50;;
8247;SDS011;4164;49.844;8.830;2022-07-21T09:39:47;6.03;;;5.40;;
8247;SDS011;4164;49.844;8.830;2022-07-21T09:42:24;8.23;;;5.47;;
8247;SDS011;4164;49.844;8.830;2022-07-21T09:45:01;6.50;;;5.23;;
8247;SDS011;4164;49.844;8.830;2022-07-21T09:47:31;6.27;;;5.73;;
8247;SDS011;4164;49.844;8.830;2022-07-21T09:49:58;6.73;;;5.60;;
8247;SDS011;4164;49.844;8.830;2022-07-21T09:52:29;5.90;;;5.10;;
8247;SDS011;4164;49.844;8.830;2022-07-21T09:54:57;5.70;;;4.80;;
8247;SDS011;4164;49.844;8.830;2022-07-21T09:57:29;6.03;;;5.03;;
8247;SDS011;4164;49.844;8.830;2022-07-21T09:59:56;6.00;;;5.47;;
8247;SDS011;4164;49.844;8.830;2022-07-21T10:02:25;5.87;;;5.27;;
8247;SDS011;4164;49.844;8.830;2022-07-21T10:04:57;6.07;;;5.47;;
8247;SDS011;4164;49.844;8.830;2022-07-21T10:07:31;5.73;;;5.13;;
8247;SDS011;4164;49.844;8.830;2022-07-21T10:09:58;6.83;;;4.33;;
8247;SDS011;4164;49.844;8.830;2022-07-21T10:12:24;7.07;;;4.90;;
8247;SDS011;4164;49.844;8.830;2022-07-21T10:14:51;7.97;;;5.00;;
8247;SDS011;4164;49.844;8.830;2022-07-21T10:17:17;5.97;;;5.10;;
8247;SDS011;4164;49.844;8.830;2022-07-21T10:19:49;5.07;;;4.40;;
8247;SDS011;4164;49.844;8.830;2022-07-21T10:22:31;4.70;;;4.30;;
8247;SDS011;4164;49.844;8.830;2022-07-21T10:25:18;5.33;;;4.30;;
8247;SDS011;4164;49.844;8.830;2022-07-21T10:28:11;5.87;;;4.60;;
8247;SDS011;4164;49.844;8.830;2022-07-21T10:31:36;6.10;;;4.70;;
8247;SDS011;4164;49.844;8.830;2022-07-21T10:36:10;6.33;;;5.23;;
8247;SDS011;4164;49.844;8.830;2022-07-21T10:41:41;7.03;;;5.10;;
8247;SDS011;4164;49.844;8.830;2022-07-21T10:47:38;5.93;;;4.83;;
8247;SDS011;4164;49.844;8.830;2022-07-21T10:57:35;9.33;;;5.13;;
8247;SDS011;4164;49.844;8.830;2022-07-21T11:00:21;6.53;;;4.93;;
8247;SDS011;4164;49.844;8.830;2022-07-21T11:02:48;5.50;;;5.00;;
8247;SDS011;4164;49.844;8.830;2022-07-21T11:05:25;5.37;;;4.80;;
8247;SDS011;4164;49.844;8.830;2022-07-21T11:10:38;6.03;;;4.47;;
8247;SDS011;4164;49.844;8.830;2022-07-21T11:13:09;5.83;;;5.27;;
8247;SDS011;4164;49.844;8.830;2022-07-21T11:15:48;5.57;;;4.53;;
8247;SDS011;4164;49.844;8.830;2022-07-21T11:18:22;6.00;;;5.40;;
8247;SDS011;4164;49.844;8.830;2022-07-21T11:21:04;5.60;;;4.80;;
8247;SDS011;4164;49.844;8.830;2022-07-21T11:23:34;6.27;;;5.20;;
8247;SDS011;4164;49.844;8.830;2022-07-21T11:26:11;5.03;;;4.53;;
8247;SDS011;4164;49.844;8.830;2022-07-21T11:28:39;5.17;;;4.67;;
8247;SDS011;4164;49.844;8.830;2022-07-21T11:31:06;10.47;;;4.83;;
8247;SDS011;4164;49.844;8.830;2022-07-21T11:33:32;6.60;;;4.83;;
8247;SDS011;4164;49.844;8.830;2022-07-21T11:35:58;5.73;;;4.50;;
8247;SDS011;4164;49.844;8.830;2022-07-21T11:38:23;5.10;;;4.23;;
8247;SDS011;4164;49.844;8.830;2022-07-21T11:40:49;4.60;;;4.17;;
8247;SDS011;4164;49.844;8.830;2022-07-21T11:43:15;4.80;;;4.30;;
8247;SDS011;4164;49.844;8.830;2022-07-21T11:45:50;7.47;;;4.07;;
8247;SDS011;4164;49.844;8.830;2022-07-21T11:48:29;5.73;;;4.83;;
8247;SDS011;4164;49.844;8.830;2022-07-21T11:50:59;5.07;;;4.47;;
8247;SDS011;4164;49.844;8.830;2022-07-21T11:53:25;5.13;;;4.63;;
8247;SDS011;4164;49.844;8.830;2022-07-21T11:55:51;4.87;;;4.40;;
8247;SDS011;4164;49.844;8.830;2022-07-21T11:58:18;6.00;;;4.23;;
8247;SDS011;4164;49.844;8.830;2022-07-21T12:00:45;5.40;;;4.33;;
8247;SDS011;4164;49.844;8.830;2022-07-21T12:03:14;5.23;;;4.60;;
8247;SDS011;4164;49.844;8.830;2022-07-21T12:05:40;5.97;;;4.47;;
8247;SDS011;4164;49.844;8.830;2022-07-21T12:08:06;7.80;;;4.60;;
8247;SDS011;4164;49.844;8.830;2022-07-21T12:10:33;5.97;;;4.17;;
8247;SDS011;4164;49.844;8.830;2022-07-21T12:13:03;4.63;;;4.10;;
8247;SDS011;4164;49.844;8.830;2022-07-21T12:15:31;4.47;;;4.03;;
8247;SDS011;4164;49.844;8.830;2022-07-21T12:18:08;6.63;;;3.67;;
8247;SDS011;4164;49.844;8.830;2022-07-21T12:20:43;4.10;;;3.73;;
8247;SDS011;4164;49.844;8.830;2022-07-21T12:23:20;4.73;;;4.33;;
8247;SDS011;4164;49.844;8.830;2022-07-21T12:25:54;6.10;;;3.93;;
8247;SDS011;4164;49.844;8.830;2022-07-21T12:28:20;5.13;;;4.63;;
8247;SDS011;4164;49.844;8.830;2022-07-21T12:30:47;5.30;;;4.43;;
8247;SDS011;4164;49.844;8.830;2022-07-21T12:33:17;5.83;;;5.00;;
8247;SDS011;4164;49.844;8.830;2022-07-21T12:38:45;6.80;;;5.17;;
8247;SDS011;4164;49.844;8.830;2022-07-21T12:41:13;6.07;;;4.60;;
8247;SDS011;4164;49.844;8.830;2022-07-21T12:43:41;7.20;;;5.00;;
8247;SDS011;4164;49.844;8.830;2022-07-21T12:46:11;5.30;;;4.50;;
8247;SDS011;4164;49.844;8.830;2022-07-21T12:48:40;6.63;;;4.70;;
8247;SDS011;4164;49.844;8.830;2022-07-21T12:53:47;10.17;;;4.93;;
8247;SDS011;4164;49.844;8.830;2022-07-21T12:56:18;6.40;;;4.53;;
8247;SDS011;4164;49.844;8.830;2022-07-21T12:58:45;5.87;;;4.60;;
8247;SDS011;4164;49.844;8.830;2022-07-21T13:01:13;4.83;;;4.43;;
8247;SDS011;4164;49.844;8.830;2022-07-21T13:03:40;6.30;;;5.17;;
8247;SDS011;4164;49.844;8.830;2022-07-21T13:06:06;6.77;;;5.20;;
8247;SDS011;4164;49.844;8.830;2022-07-21T13:08:32;7.93;;;4.87;;
8247;SDS011;4164;49.844;8.830;2022-07-21T13:10:58;5.37;;;4.87;;
8247;SDS011;4164;49.844;8.830;2022-07-21T13:13:26;5.23;;;4.73;;
8247;SDS011;4164;49.844;8.830;2022-07-21T13:15:52;5.67;;;5.17;;
8247;SDS011;4164;49.844;8.830;2022-07-21T13:18:18;6.17;;;4.70;;
8247;SDS011;4164;49.844;8.830;2022-07-21T13:20:44;5.23;;;4.77;;
8247;SDS011;4164;49.844;8.830;2022-07-21T13:23:09;5.43;;;4.93;;
8247;SDS011;4164;49.844;8.830;2022-07-21T13:25:35;7.80;;;5.47;;
8247;SDS011;4164;49.844;8.830;2022-07-21T13:28:01;5.53;;;5.03;;
8247;SDS011;4164;49.844;8.830;2022-07-21T13:30:28;6.50;;;5.23;;
8247;SDS011;4164;49.844;8.830;2022-07-21T13:32:54;7.10;;;5.40;;
8247;SDS011;4164;49.844;8.830;2022-07-21T13:35:19;6.50;;;5.03;;
8247;SDS011;4164;49.844;8.830;2022-07-21T13:37:45;6.10;;;5.13;;
8247;SDS011;4164;49.844;8.830;2022-07-21T13:40:11;7.90;;;5.40;;
8247;SDS011;4164;49.844;8.830;2022-07-21T13:42:37;5.80;;;5.07;;
8247;SDS011;4164;49.844;8.830;2022-07-21T13:45:03;6.13;;;5.53;;
8247;SDS011;4164;49.844;8.830;2022-07-21T13:47:30;7.20;;;5.30;;
8247;SDS011;4164;49.844;8.830;2022-07-21T13:49:56;6.30;;;5.57;;
8247;SDS011;4164;49.844;8.830;2022-07-21T13:52:21;6.00;;;5.40;;
8247;SDS011;4164;49.844;8.830;2022-07-21T13:54:47;6.80;;;5.57;;
8247;SDS011;4164;49.844;8.830;2022-07-21T13:57:12;6.20;;;5.60;;
8247;SDS011;4164;49.844;8.830;2022-07-21T13:59:41;6.33;;;5.73;;
8247;SDS011;4164;49.844;8.830;2022-07-21T14:02:06;6.27;;;5.67;;
8247;SDS011;4164;49.844;8.830;2022-07-21T14:04:32;6.30;;;5.57;;
8247;SDS011;4164;49.844;8.830;2022-07-21T14:06:57;7.47;;;6.13;;
8247;SDS011;4164;49.844;8.830;2022-07-21T14:09:23;7.30;;;5.90;;
8247;SDS011;4164;49.844;8.830;2022-07-21T14:11:49;6.67;;;6.07;;
8247;SDS011;4164;49.844;8.830;2022-07-21T14:14:15;7.90;;;6.17;;
8247;SDS011;4164;49.844;8.830;2022-07-21T14:16:46;8.77;;;6.57;;
8247;SDS011;4164;49.844;8.830;2022-07-21T14:19:12;6.50;;;5.80;;
8247;SDS011;4164;49.844;8.830;2022-07-21T14:21:38;7.20;;;6.27;;
8247;SDS011;4164;49.844;8.830;2022-07-21T14:24:03;7.03;;;6.40;;
8247;SDS011;4164;49.844;8.830;2022-07-21T14:26:48;6.20;;;5.60;;
8247;SDS011;4164;49.844;8.830;2022-07-21T14:29:13;6.83;;;5.97;;
8247;SDS011;4164;49.844;8.830;2022-07-21T14:31:39;6.97;;;6.37;;
8247;SDS011;4164;49.844;8.830;2022-07-21T14:34:05;9.17;;;6.00;;
8247;SDS011;4164;49.844;8.830;2022-07-21T14:36:30;6.87;;;6.27;;
8247;SDS011;4164;49.844;8.830;2022-07-21T14:38:56;7.33;;;5.87;;
8247;SDS011;4164;49.844;8.830;2022-07-21T14:41:21;7.37;;;6.67;;
8247;SDS011;4164;49.844;8.830;2022-07-21T14:43:47;6.40;;;5.80;;
8247;SDS011;4164;49.844;8.830;2022-07-21T14:46:14;8.87;;;6.57;;
8247;SDS011;4164;49.844;8.830;2022-07-21T14:48:40;7.00;;;6.30;;
8247;SDS011;4164;49.844;8.830;2022-07-21T14:51:05;8.53;;;6.50;;
8247;SDS011;4164;49.844;8.830;2022-07-21T14:53:31;6.87;;;6.17;;
8247;SDS011;4164;49.844;8.830;2022-07-21T14:55:57;6.63;;;5.80;;
8247;SDS011;4164;49.844;8.830;2022-07-21T14:58:22;6.63;;;5.93;;
8247;SDS011;4164;49.844;8.830;2022-07-21T15:00:48;6.90;;;6.23;;
8247;SDS011;4164;49.844;8.830;2022-07-21T15:03:14;6.40;;;5.80;;
8247;SDS011;4164;49.844;8.830;2022-07-21T15:05:40;6.97;;;6.00;;
8247;SDS011;4164;49.844;8.830;2022-07-21T15:08:06;8.63;;;5.80;;
8247;SDS011;4164;49.844;8.830;2022-07-21T15:10:31;6.53;;;5.90;;
8247;SDS011;4164;49.844;8.830;2022-07-21T15:12:57;6.37;;;5.77;;
8247;SDS011;4164;49.844;8.830;2022-07-21T15:15:22;6.40;;;5.80;;
8247;SDS011;4164;49.844;8.830;2022-07-21T15:17:48;6.40;;;5.80;;
8247;SDS011;4164;49.844;8.830;2022-07-21T15:20:13;6.37;;;5.40;;
8247;SDS011;4164;49.844;8.830;2022-07-21T15:22:42;7.70;;;5.20;;
8247;SDS011;4164;49.844;8.830;2022-07-21T15:25:08;5.60;;;5.03;;
8247;SDS011;4164;49.844;8.830;2022-07-21T15:27:44;6.77;;;5.67;;
8247;SDS011;4164;49.844;8.830;2022-07-21T15:30:11;6.57;;;5.97;;
8247;SDS011;4164;49.844;8.830;2022-07-21T15:32:38;6.47;;;5.40;;
8247;SDS011;4164;49.844;8.830;2022-07-21T15:35:04;5.93;;;5.43;;